Time;durP1;ratioP1;P1;durP2;ratioP2;P2;SDS_P1;SDS_P2;PMS_P1;PMS_P2;Temp;Humidity;BMP_temperature;BMP_pressure;BME280_temperature;BME280_humidity;BME280_pressure;Samples;Min_cycle;Max_cycle;Signal;HPM_P1;HPM_P2
2022/04/11 00:00:48;;;;;;;6.77;5.23;;;8.70;48.40;;;;;;5089887;28;20434;-85
2022/04/11 00:03:15;;;;;;;5.77;4.37;;;8.70;48.40;;;;;;5088714;28;20809;-85
2022/04/11 00:05:42;;;;;;;4.90;4.40;;;8.70;48.70;;;;;;5090986;28;20488;-86
2022/04/11 00:08:10;;;;;;;6.30;5.13;;;8.70;48.80;;;;;;5091038;28;20951;-86
2022/04/11 00:10:37;;;;;;;9.00;4.33;;;8.60;48.70;;;;;;5096201;28;20500;-85
2022/04/11 00:13:05;;;;;;;5.47;4.40;;;8.50;49.10;;;;;;5087518;28;20529;-85
2022/04/11 00:15:34;;;;;;;8.33;5.80;;;7.90;50.50;;;;;;5089475;28;20486;-85
2022/04/11 00:18:02;;;;;;;7.33;4.93;;;7.70;50.50;;;;;;5085611;28;20579;-85
2022/04/11 00:20:29;;;;;;;7.10;4.23;;;7.70;51.30;;;;;;5080994;28;20447;-88
2022/04/11 00:22:56;;;;;;;10.40;5.30;;;7.80;50.90;;;;;;5087250;28;20473;-85
2022/04/11 00:25:25;;;;;;;8.33;5.27;;;7.90;50.20;;;;;;5096295;28;21033;-87
2022/04/11 00:27:52;;;;;;;5.90;4.70;;;8.00;49.80;;;;;;5086394;28;20450;-86
2022/04/11 00:30:19;;;;;;;5.47;4.30;;;8.00;49.70;;;;;;5088858;28;20452;-86
2022/04/11 00:32:48;;;;;;;6.63;5.00;;;8.00;50.20;;;;;;5069003;28;20463;-84
2022/04/11 00:35:15;;;;;;;7.57;5.80;;;8.00;50.80;;;;;;5095587;28;20471;-86
2022/04/11 00:37:42;;;;;;;9.37;4.20;;;8.00;50.20;;;;;;5087012;28;20475;-86
2022/04/11 00:40:11;;;;;;;6.57;5.40;;;8.00;50.10;;;;;;5089006;28;20519;-87
2022/04/11 00:42:39;;;;;;;6.83;4.93;;;8.10;49.70;;;;;;5089824;28;20452;-87
2022/04/11 00:45:07;;;;;;;9.47;5.10;;;8.10;49.30;;;;;;5086184;28;20475;-85
2022/04/11 00:47:34;;;;;;;5.83;4.50;;;8.10;49.00;;;;;;5088876;28;20455;-86
2022/04/11 00:50:05;;;;;;;6.30;4.93;;;8.10;49.10;;;;;;5086869;28;20451;-85
2022/04/11 00:52:34;;;;;;;5.83;5.00;;;8.00;49.10;;;;;;5087705;28;20443;-86
2022/04/11 00:55:01;;;;;;;9.97;5.03;;;7.90;50.50;;;;;;5076521;28;21000;-86
2022/04/11 00:57:29;;;;;;;6.70;4.90;;;7.80;50.30;;;;;;5061956;28;20463;-86
2022/04/11 00:59:59;;;;;;;6.07;4.47;;;7.80;50.20;;;;;;5067447;28;20976;-85
2022/04/11 01:02:26;;;;;;;7.93;5.73;;;7.90;50.20;;;;;;5095352;28;20443;-88
2022/04/11 01:04:53;;;;;;;5.50;4.83;;;8.00;49.80;;;;;;5086422;28;20467;-85
2022/04/11 01:07:20;;;;;;;9.80;6.23;;;8.00;49.30;;;;;;5068996;28;20448;-85
2022/04/11 01:09:48;;;;;;;7.37;5.47;;;8.00;49.30;;;;;;5088357;28;20847;-86
2022/04/11 01:12:15;;;;;;;8.40;5.50;;;7.90;49.60;;;;;;5088135;28;20443;-87
2022/04/11 01:14:43;;;;;;;7.07;5.23;;;7.90;49.70;;;;;;5079663;28;20542;-86
2022/04/11 01:17:11;;;;;;;7.80;5.50;;;7.90;49.40;;;;;;5079107;28;20468;-86
2022/04/11 01:19:39;;;;;;;8.50;5.80;;;7.70;49.80;;;;;;5091110;28;21010;-85
2022/04/11 01:22:07;;;;;;;9.00;5.83;;;7.60;50.70;;;;;;5079432;28;20474;-85
2022/04/11 01:24:36;;;;;;;10.30;5.97;;;7.60;50.00;;;;;;5085431;28;20447;-85
2022/04/11 01:27:03;;;;;;;10.33;5.80;;;7.70;50.50;;;;;;5062421;28;20481;-86
2022/04/11 01:29:30;;;;;;;7.13;5.70;;;7.70;49.80;;;;;;5072577;28;20530;-85
2022/04/11 01:31:57;;;;;;;7.80;5.17;;;7.70;49.60;;;;;;5089447;28;20455;-85
2022/04/11 01:34:24;;;;;;;8.97;5.23;;;7.70;49.60;;;;;;5087124;28;20466;-86
2022/04/11 01:36:51;;;;;;;7.37;5.93;;;7.80;49.70;;;;;;5071283;28;20921;-85
2022/04/11 01:39:19;;;;;;;10.20;5.70;;;7.80;49.70;;;;;;5088596;28;20474;-84
2022/04/11 01:41:48;;;;;;;5.70;5.10;;;7.80;49.80;;;;;;5079154;28;20453;-85
2022/04/11 01:44:16;;;;;;;7.73;4.60;;;7.70;49.70;;;;;;5094703;28;20634;-85
2022/04/11 01:46:46;;;;;;;8.37;5.80;;;7.80;49.70;;;;;;5088842;28;20493;-85
2022/04/11 01:49:16;;;;;;;5.63;4.83;;;7.80;49.70;;;;;;5081510;28;20843;-85
2022/04/11 01:51:43;;;;;;;6.63;5.07;;;7.80;49.70;;;;;;5078082;28;20477;-84
2022/04/11 01:54:10;;;;;;;6.37;5.10;;;7.80;49.60;;;;;;5076781;28;20447;-86
2022/04/11 01:56:39;;;;;;;8.70;5.90;;;7.80;49.70;;;;;;5093410;28;20477;-86
2022/04/11 01:59:06;;;;;;;8.57;6.23;;;7.70;49.90;;;;;;5089895;28;20549;-85
2022/04/11 02:01:33;;;;;;;8.70;5.93;;;7.70;49.70;;;;;;5099738;28;20462;-86
2022/04/11 02:04:00;;;;;;;8.00;5.87;;;7.70;49.80;;;;;;5071452;28;21201;-86
2022/04/11 02:06:27;;;;;;;10.00;6.40;;;7.70;49.90;;;;;;5090750;28;20467;-87
2022/04/11 02:08:54;;;;;;;7.93;5.87;;;7.70;50.00;;;;;;5075400;28;20438;-86
2022/04/11 02:11:21;;;;;;;9.50;5.63;;;7.60;50.30;;;;;;5100714;28;21476;-85
2022/04/11 02:13:49;;;;;;;9.00;6.37;;;7.50;50.20;;;;;;5090253;28;20451;-85
2022/04/11 02:16:17;;;;;;;12.50;7.40;;;7.50;50.20;;;;;;5093573;28;20458;-86
2022/04/11 02:18:44;;;;;;;14.97;7.50;;;7.60;50.30;;;;;;5075241;28;20470;-85
2022/04/11 02:21:11;;;;;;;10.60;7.00;;;7.60;50.20;;;;;;5088227;28;20451;-85
2022/04/11 02:23:38;;;;;;;10.37;7.07;;;7.60;50.30;;;;;;5091072;28;20455;-85
2022/04/11 02:26:05;;;;;;;9.77;6.30;;;7.50;50.20;;;;;;5098181;28;20475;-86
2022/04/11 02:28:32;;;;;;;8.93;6.63;;;7.60;50.20;;;;;;5089369;28;20509;-85
2022/04/11 02:31:00;;;;;;;7.00;5.40;;;7.50;50.00;;;;;;5089466;28;20490;-85
2022/04/11 02:33:28;;;;;;;7.70;6.30;;;7.50;50.40;;;;;;5081447;28;20451;-83
2022/04/11 02:35:55;;;;;;;12.43;6.50;;;7.50;50.60;;;;;;5086409;28;20513;-86
2022/04/11 02:38:23;;;;;;;9.97;6.90;;;7.50;50.70;;;;;;5061936;28;21262;-84
2022/04/11 02:40:50;;;;;;;8.10;6.87;;;7.40;50.60;;;;;;5090977;28;21162;-86
2022/04/11 02:43:19;;;;;;;9.37;6.73;;;7.50;50.60;;;;;;5076695;28;20514;-86
2022/04/11 02:46:03;;;;;;;6.43;5.73;;;7.50;50.50;;;;;;5064473;28;20560;-87
2022/04/11 02:48:34;;;;;;;9.43;6.30;;;7.60;50.60;;;;;;5084044;28;21150;-86
2022/04/11 02:51:10;;;;;;;10.70;6.13;;;7.50;50.60;;;;;;5098673;28;20462;-85
2022/04/11 02:53:47;;;;;;;8.13;6.30;;;7.50;50.70;;;;;;5090023;28;20439;-85
2022/04/11 02:56:14;;;;;;;10.53;6.00;;;7.50;50.70;;;;;;5075000;28;20508;-87
2022/04/11 02:58:41;;;;;;;7.77;6.27;;;7.50;50.60;;;;;;5066314;28;20914;-85
2022/04/11 03:01:09;;;;;;;7.97;5.87;;;7.50;50.70;;;;;;5086358;28;20449;-85
2022/04/11 03:03:38;;;;;;;9.23;6.20;;;7.50;50.50;;;;;;5078804;28;20447;-86
2022/04/11 03:06:06;;;;;;;6.10;5.50;;;7.40;51.10;;;;;;5059217;28;20470;-85
2022/04/11 03:08:33;;;;;;;9.40;6.20;;;7.40;51.30;;;;;;5086924;28;20929;-87
2022/04/11 03:11:01;;;;;;;8.10;5.77;;;7.50;51.20;;;;;;5097040;28;20483;-86
2022/04/11 03:13:29;;;;;;;8.43;6.57;;;7.40;51.10;;;;;;5092218;28;20455;-85
2022/04/11 03:15:56;;;;;;;10.33;7.23;;;7.50;51.10;;;;;;5089274;28;20467;-85
2022/04/11 03:18:25;;;;;;;10.70;6.90;;;7.30;52.30;;;;;;5098690;28;20476;-87
2022/04/11 03:20:53;;;;;;;11.53;7.47;;;7.20;51.60;;;;;;5071503;28;21036;-85
2022/04/11 03:23:20;;;;;;;7.00;5.90;;;7.10;51.40;;;;;;5090804;28;20459;-85
2022/04/11 03:25:51;;;;;;;7.90;6.40;;;7.20;51.80;;;;;;5058700;28;20959;-85
2022/04/11 03:28:23;;;;;;;10.70;7.03;;;7.00;52.00;;;;;;5088293;28;20484;-85
2022/04/11 03:30:50;;;;;;;9.90;6.60;;;7.00;52.40;;;;;;5087649;28;20986;-84
2022/04/11 03:33:17;;;;;;;12.47;7.47;;;7.00;52.10;;;;;;5064352;28;20452;-85
2022/04/11 03:35:45;;;;;;;13.00;7.60;;;7.10;51.80;;;;;;5088431;28;21370;-86
2022/04/11 03:38:13;;;;;;;7.87;6.07;;;7.10;52.00;;;;;;5073464;28;20822;-85
2022/04/11 03:40:40;;;;;;;13.40;7.40;;;7.10;51.90;;;;;;5072895;28;20459;-85
2022/04/11 03:43:11;;;;;;;11.60;8.10;;;7.10;51.80;;;;;;5087873;28;20458;-86
2022/04/11 03:45:38;;;;;;;10.23;7.60;;;7.10;51.90;;;;;;5105879;27;20510;-87
2022/04/11 03:48:05;;;;;;;8.40;6.80;;;7.20;52.00;;;;;;5071343;28;20466;-85
2022/04/11 03:50:37;;;;;;;10.27;6.80;;;7.20;51.60;;;;;;5097595;28;20447;-85
2022/04/11 03:53:05;;;;;;;8.87;6.33;;;7.20;51.30;;;;;;5088702;28;20443;-86
2022/04/11 03:55:35;;;;;;;11.70;7.27;;;7.20;51.00;;;;;;5064186;28;20494;-87
2022/04/11 03:58:03;;;;;;;7.93;7.03;;;7.20;51.60;;;;;;5071833;28;20439;-85
2022/04/11 04:00:33;;;;;;;7.87;6.53;;;7.20;51.70;;;;;;5086727;28;20452;-87
2022/04/11 04:03:13;;;;;;;11.80;7.03;;;7.30;51.30;;;;;;5089781;28;21036;-86
2022/04/11 04:05:47;;;;;;;17.20;9.20;;;7.20;51.10;;;;;;5089760;28;20472;-84
2022/04/11 04:08:20;;;;;;;14.17;8.20;;;7.10;51.30;;;;;;5084835;28;20451;-84
2022/04/11 04:11:01;;;;;;;12.83;7.83;;;7.10;51.20;;;;;;5087344;28;20452;-85
2022/04/11 04:13:30;;;;;;;11.03;7.77;;;7.10;51.40;;;;;;5097011;28;20464;-85
2022/04/11 04:15:58;;;;;;;12.10;7.87;;;7.10;51.60;;;;;;5070309;28;20517;-86
2022/04/11 04:18:26;;;;;;;11.77;7.10;;;7.10;51.50;;;;;;5072739;28;20480;-86
2022/04/11 04:20:55;;;;;;;10.10;6.77;;;7.10;51.50;;;;;;5094498;28;20482;-86
2022/04/11 04:23:23;;;;;;;14.50;9.57;;;7.10;52.00;;;;;;5065315;28;21281;-85
2022/04/11 04:25:50;;;;;;;14.40;8.93;;;7.10;52.40;;;;;;5079275;28;20472;-84
2022/04/11 04:28:17;;;;;;;10.47;6.80;;;7.00;52.60;;;;;;5089643;28;20451;-85
2022/04/11 04:30:46;;;;;;;15.80;9.00;;;7.00;52.90;;;;;;5092094;28;20445;-86
2022/04/11 04:33:13;;;;;;;13.37;6.30;;;7.00;52.70;;;;;;5071732;28;20447;-86
2022/04/11 04:35:41;;;;;;;12.80;8.07;;;7.00;53.10;;;;;;5072077;28;20575;-84
2022/04/11 04:38:11;;;;;;;16.73;9.23;;;6.90;53.50;;;;;;5093036;28;20983;-85
2022/04/11 04:40:47;;;;;;;8.10;7.27;;;6.80;53.90;;;;;;5088548;28;20430;-86
2022/04/11 04:43:19;;;;;;;13.53;8.17;;;6.80;53.90;;;;;;5079588;28;20473;-85
2022/04/11 04:45:47;;;;;;;16.20;9.60;;;6.40;54.70;;;;;;5086486;28;20464;-87
2022/04/11 04:48:24;;;;;;;15.83;9.53;;;6.50;55.00;;;;;;5087057;28;20451;-86
2022/04/11 04:50:51;;;;;;;14.37;9.20;;;6.60;54.50;;;;;;5085204;28;20447;-85
2022/04/11 04:53:19;;;;;;;21.23;10.97;;;6.60;54.20;;;;;;5063616;28;20886;-86
2022/04/11 04:55:50;;;;;;;18.90;10.47;;;6.70;54.20;;;;;;5085291;28;20525;-87
2022/04/11 04:58:17;;;;;;;14.33;10.10;;;6.70;54.40;;;;;;5101987;28;21173;-85
2022/04/11 05:00:45;;;;;;;19.13;9.50;;;6.60;54.20;;;;;;5065135;28;20518;-87
2022/04/11 05:03:16;;;;;;;15.77;8.90;;;6.50;54.40;;;;;;5076930;28;20463;-80
2022/04/11 05:05:43;;;;;;;45.67;19.70;;;6.40;54.70;;;;;;5103884;28;20849;-86
2022/04/11 05:08:10;;;;;;;18.03;12.23;;;6.50;54.70;;;;;;5089381;28;20454;-85
2022/04/11 05:10:39;;;;;;;15.30;9.10;;;6.70;54.60;;;;;;5097313;28;20466;-86
2022/04/11 05:13:10;;;;;;;135.87;48.80;;;6.70;54.20;;;;;;5087775;28;20455;-84
2022/04/11 05:15:38;;;;;;;21.50;11.00;;;6.60;54.10;;;;;;5079959;28;20473;-85
2022/04/11 05:18:11;;;;;;;51.30;26.53;;;6.60;54.80;;;;;;5063317;28;20458;-86
2022/04/11 05:20:40;;;;;;;34.07;20.30;;;6.80;54.50;;;;;;5086948;28;20476;-85
2022/04/11 05:23:07;;;;;;;20.57;14.20;;;6.90;54.20;;;;;;5097282;28;20538;-84
2022/04/11 05:25:38;;;;;;;13.97;9.70;;;6.90;54.10;;;;;;5099754;28;20460;-84
2022/04/11 05:28:05;;;;;;;15.10;8.73;;;7.00;54.20;;;;;;5107013;27;20987;-85
2022/04/11 05:30:36;;;;;;;14.27;9.13;;;7.10;54.20;;;;;;5095504;27;20432;-85
2022/04/11 05:33:07;;;;;;;13.23;9.60;;;7.10;53.60;;;;;;5079692;28;20448;-86
2022/04/11 05:35:34;;;;;;;15.20;11.40;;;7.00;53.60;;;;;;5078752;28;21217;-84
2022/04/11 05:38:06;;;;;;;11.90;8.57;;;7.00;53.80;;;;;;5092127;28;20444;-85
2022/04/11 05:40:34;;;;;;;11.27;9.97;;;6.90;54.30;;;;;;5068132;28;20471;-85
2022/04/11 05:43:04;;;;;;;13.20;10.10;;;6.70;54.50;;;;;;5091285;28;20447;-86
2022/04/11 05:45:33;;;;;;;10.37;7.57;;;6.60;55.80;;;;;;5091660;28;20565;-85
2022/04/11 05:48:01;;;;;;;10.43;8.60;;;6.70;55.30;;;;;;5091552;27;20458;-86
2022/04/11 05:50:29;;;;;;;13.80;7.97;;;6.80;55.00;;;;;;5082121;28;20455;-85
2022/04/11 05:52:56;;;;;;;13.50;9.77;;;7.00;54.60;;;;;;5073853;28;20792;-85
2022/04/11 05:55:24;;;;;;;10.60;8.27;;;7.10;54.40;;;;;;5088349;28;20927;-87
2022/04/11 05:57:51;;;;;;;37.67;18.30;;;7.20;54.10;;;;;;5070238;28;20448;-84
2022/04/11 06:00:19;;;;;;;37.67;19.30;;;7.20;54.00;;;;;;5074995;28;20472;-85
2022/04/11 06:02:47;;;;;;;29.23;14.80;;;7.20;53.90;;;;;;5089047;28;20977;-85
2022/04/11 06:05:16;;;;;;;24.03;14.10;;;7.30;53.80;;;;;;5080186;28;21210;-85
2022/04/11 06:07:44;;;;;;;22.07;13.30;;;7.40;53.60;;;;;;5080127;28;20538;-84
2022/04/11 06:10:12;;;;;;;17.23;11.33;;;7.40;53.40;;;;;;5092679;28;20496;-85
2022/04/11 06:12:40;;;;;;;13.70;9.10;;;7.50;53.20;;;;;;5092345;28;20448;-86
2022/04/11 06:15:08;;;;;;;13.80;9.60;;;7.50;52.80;;;;;;5072904;28;20482;-85
2022/04/11 06:17:35;;;;;;;14.13;8.50;;;7.50;52.70;;;;;;5088905;28;20563;-85
2022/04/11 06:20:03;;;;;;;20.83;10.13;;;7.60;52.90;;;;;;5089521;28;20466;-85
2022/04/11 06:22:39;;;;;;;14.60;9.17;;;7.50;53.40;;;;;;5073731;28;20534;-84
2022/04/11 06:25:09;;;;;;;14.70;8.73;;;7.40;53.70;;;;;;5090913;28;20470;-85
2022/04/11 06:27:37;;;;;;;13.10;9.47;;;7.50;54.00;;;;;;5093243;28;20456;-86
2022/04/11 06:30:05;;;;;;;13.60;10.07;;;7.50;53.70;;;;;;5072086;28;20463;-84
2022/04/11 06:32:34;;;;;;;17.30;10.27;;;7.60;53.70;;;;;;5073887;28;20512;-86
2022/04/11 06:35:02;;;;;;;13.67;9.03;;;7.70;53.30;;;;;;5097384;28;20542;-85
2022/04/11 06:37:29;;;;;;;17.00;11.00;;;7.80;53.00;;;;;;5066212;28;20495;-85
2022/04/11 06:40:01;;;;;;;14.30;9.10;;;7.90;52.80;;;;;;5081850;28;20468;-84
2022/04/11 06:42:30;;;;;;;14.33;9.03;;;7.90;52.60;;;;;;5090219;28;20458;-85
2022/04/11 06:44:57;;;;;;;15.00;9.57;;;8.00;52.60;;;;;;5072676;28;20502;-84
2022/04/11 06:47:28;;;;;;;12.97;8.70;;;8.00;52.40;;;;;;5073429;28;20506;-83
2022/04/11 06:49:55;;;;;;;14.63;9.77;;;8.10;52.40;;;;;;5064227;28;20474;-84
2022/04/11 06:52:22;;;;;;;12.37;8.20;;;8.10;52.50;;;;;;5090940;28;20458;-83
2022/04/11 06:54:49;;;;;;;17.90;10.47;;;8.10;52.30;;;;;;5098133;28;20759;-85
2022/04/11 06:57:17;;;;;;;13.50;8.80;;;8.10;52.10;;;;;;5091578;28;20446;-84
2022/04/11 06:59:44;;;;;;;19.70;10.83;;;8.10;52.30;;;;;;5089363;28;20524;-85
2022/04/11 07:02:11;;;;;;;16.53;9.33;;;8.00;52.50;;;;;;5088425;28;20447;-85
2022/04/11 07:04:38;;;;;;;14.47;8.63;;;8.00;52.40;;;;;;5088836;28;20631;-83
2022/04/11 07:07:05;;;;;;;13.67;9.27;;;8.00;52.30;;;;;;5063873;28;20463;-85
2022/04/11 07:09:32;;;;;;;16.77;11.30;;;8.00;52.60;;;;;;5091870;28;20451;-85
2022/04/11 07:11:59;;;;;;;15.00;9.47;;;8.10;52.80;;;;;;5081052;28;21251;-84
2022/04/11 07:14:27;;;;;;;13.50;9.73;;;8.10;52.70;;;;;;5090029;28;20443;-86
2022/04/11 07:16:54;;;;;;;12.63;8.97;;;8.20;52.70;;;;;;5090935;28;20483;-85
2022/04/11 07:19:21;;;;;;;14.47;9.87;;;8.20;52.80;;;;;;5087850;28;20455;-86
2022/04/11 07:21:48;;;;;;;15.80;10.10;;;8.20;53.20;;;;;;5088428;28;21182;-84
2022/04/11 07:24:16;;;;;;;13.60;8.50;;;8.10;53.50;;;;;;5087528;28;20453;-84
2022/04/11 07:26:43;;;;;;;15.47;10.60;;;8.10;53.60;;;;;;5075797;28;20482;-85
2022/04/11 07:29:10;;;;;;;14.73;10.20;;;8.20;53.60;;;;;;5098042;28;20455;-84
2022/04/11 07:31:38;;;;;;;13.70;9.00;;;8.30;53.50;;;;;;5082022;28;20451;-85
2022/04/11 07:34:05;;;;;;;13.50;9.23;;;8.40;53.60;;;;;;5090120;28;20538;-84
2022/04/11 07:36:32;;;;;;;14.53;8.40;;;8.40;53.80;;;;;;5090947;28;20499;-86
2022/04/11 07:38:59;;;;;;;16.70;9.73;;;8.50;54.00;;;;;;5088546;28;20448;-84
2022/04/11 07:41:26;;;;;;;13.53;9.03;;;8.40;54.70;;;;;;5090155;28;20478;-85
2022/04/11 07:43:54;;;;;;;12.47;8.50;;;8.50;54.50;;;;;;5091644;28;20476;-84
2022/04/11 07:46:21;;;;;;;13.23;8.50;;;8.70;54.40;;;;;;5080740;28;20495;-85
2022/04/11 07:48:50;;;;;;;14.90;9.67;;;8.80;54.40;;;;;;5086381;28;20822;-87
2022/04/11 07:51:17;;;;;;;16.53;10.87;;;8.90;54.40;;;;;;5090269;28;20455;-84
2022/04/11 07:53:44;;;;;;;14.60;10.10;;;9.10;54.00;;;;;;5087346;28;20450;-85
2022/04/11 07:56:11;;;;;;;20.10;9.90;;;9.20;54.00;;;;;;5085876;28;20459;-84
2022/04/11 07:58:37;;;;;;;13.17;9.50;;;9.30;53.90;;;;;;5089786;28;20460;-85
2022/04/11 08:01:04;;;;;;;14.50;9.33;;;9.50;53.90;;;;;;5087016;28;20478;-84
2022/04/11 08:03:31;;;;;;;16.00;9.40;;;9.60;53.50;;;;;;5089456;28;20870;-85
2022/04/11 08:05:59;;;;;;;16.00;8.90;;;9.70;53.50;;;;;;5092738;28;21142;-84
2022/04/11 08:08:27;;;;;;;14.07;9.57;;;9.80;53.40;;;;;;5076238;28;20469;-85
2022/04/11 08:10:53;;;;;;;12.93;9.20;;;9.90;52.90;;;;;;5085812;28;20458;-85
2022/04/11 08:13:20;;;;;;;11.50;9.73;;;9.90;53.00;;;;;;5089045;28;20466;-85
2022/04/11 08:15:47;;;;;;;12.17;9.77;;;9.90;53.30;;;;;;5088669;28;21095;-87
2022/04/11 08:18:14;;;;;;;16.03;10.10;;;9.90;53.30;;;;;;5089708;28;20444;-86
2022/04/11 08:20:41;;;;;;;19.37;10.30;;;10.00;53.40;;;;;;5092029;28;20490;-85
2022/04/11 08:23:09;;;;;;;18.40;9.80;;;10.20;52.70;;;;;;5072752;28;20447;-85
2022/04/11 08:25:37;;;;;;;15.43;9.50;;;10.40;52.20;;;;;;5064170;28;20540;-85
2022/04/11 08:28:04;;;;;;;12.10;9.00;;;10.50;51.70;;;;;;5086851;28;20550;-85
2022/04/11 08:30:31;;;;;;;13.93;9.50;;;10.60;51.10;;;;;;5087179;28;20447;-85
2022/04/11 08:32:58;;;;;;;13.27;9.80;;;10.70;51.10;;;;;;5086694;28;20446;-85
2022/04/11 08:35:25;;;;;;;13.40;9.10;;;10.80;51.20;;;;;;5072268;28;20473;-84
2022/04/11 08:37:52;;;;;;;12.50;9.23;;;10.90;51.10;;;;;;5086945;28;20458;-85
2022/04/11 08:40:20;;;;;;;11.33;10.00;;;10.90;51.00;;;;;;5090245;28;20562;-84
2022/04/11 08:42:49;;;;;;;11.37;9.10;;;11.10;51.30;;;;;;5089136;28;20448;-86
2022/04/11 08:45:19;;;;;;;13.90;8.93;;;11.20;50.70;;;;;;5079528;28;20479;-84
2022/04/11 08:47:47;;;;;;;12.60;9.20;;;11.30;51.00;;;;;;5089166;28;20637;-86
2022/04/11 08:50:14;;;;;;;13.20;9.80;;;11.50;50.70;;;;;;5087946;28;20534;-86
2022/04/11 08:52:42;;;;;;;13.17;9.10;;;11.70;50.50;;;;;;5090068;28;20455;-84
2022/04/11 08:55:10;;;;;;;14.00;9.90;;;11.80;50.10;;;;;;5084367;28;21024;-85
2022/04/11 08:57:39;;;;;;;11.73;9.70;;;12.00;49.70;;;;;;5088648;28;20446;-84
2022/04/11 09:00:09;;;;;;;11.83;8.90;;;12.00;48.60;;;;;;5081731;28;20474;-85
2022/04/11 09:02:37;;;;;;;9.07;7.30;;;12.00;48.70;;;;;;5092075;28;20471;-85
2022/04/11 09:05:05;;;;;;;8.80;6.63;;;12.10;48.80;;;;;;5089431;28;20468;-86
2022/04/11 09:07:46;;;;;;;12.27;8.20;;;12.30;48.50;;;;;;5078950;28;20966;-85
2022/04/11 09:10:13;;;;;;;17.10;10.80;;;12.50;47.40;;;;;;5091028;28;20603;-86
2022/04/11 09:12:48;;;;;;;11.10;8.60;;;12.60;47.80;;;;;;5092342;28;20861;-85
2022/04/11 09:15:15;;;;;;;15.23;8.83;;;12.80;48.30;;;;;;5090515;28;20536;-84
2022/04/11 09:17:43;;;;;;;10.10;8.20;;;13.00;47.70;;;;;;5094204;28;20447;-85
2022/04/11 09:20:12;;;;;;;15.43;7.67;;;13.10;46.90;;;;;;5091939;28;20527;-84
2022/04/11 09:22:39;;;;;;;12.33;8.00;;;13.40;46.10;;;;;;5092189;28;20475;-85
2022/04/11 09:25:08;;;;;;;10.77;7.53;;;12.90;46.00;;;;;;5092362;28;20529;-86
2022/04/11 09:27:35;;;;;;;12.53;8.47;;;13.00;46.80;;;;;;5091544;28;21303;-84
2022/04/11 09:30:19;;;;;;;9.33;7.43;;;13.40;46.30;;;;;;5073545;28;21229;-87
2022/04/11 09:33:01;;;;;;;10.87;6.87;;;13.50;47.10;;;;;;5090763;28;20812;-84
2022/04/11 09:35:30;;;;;;;14.57;7.53;;;14.10;46.80;;;;;;5089038;28;20559;-86
2022/04/11 09:38:11;;;;;;;10.97;7.50;;;14.50;45.80;;;;;;5090152;28;20446;-86
2022/04/11 09:40:44;;;;;;;12.40;6.73;;;14.80;43.50;;;;;;5090431;28;20471;-86
2022/04/11 09:43:12;;;;;;;5.80;3.33;;;14.60;42.90;;;;;;5092110;28;20447;-85
2022/04/11 09:45:45;;;;;;;5.33;4.10;;;14.40;39.70;;;;;;5093179;28;21244;-85
2022/04/11 09:48:17;;;;;;;4.80;3.70;;;14.30;40.00;;;;;;5090729;28;20446;-85
2022/04/11 09:50:44;;;;;;;6.33;4.20;;;14.80;37.10;;;;;;5082215;28;20450;-86
2022/04/11 09:53:12;;;;;;;4.83;4.40;;;15.20;37.00;;;;;;5089355;28;20549;-86
2022/04/11 09:55:40;;;;;;;4.50;3.90;;;15.50;36.20;;;;;;5098829;28;20474;-87
2022/04/11 09:58:08;;;;;;;6.87;3.57;;;15.50;34.50;;;;;;5089855;28;20448;-87
2022/04/11 10:00:37;;;;;;;7.03;4.40;;;15.50;34.40;;;;;;5091272;28;20474;-85
2022/04/11 10:03:06;;;;;;;4.00;3.50;;;15.20;34.50;;;;;;5092395;28;20480;-87
2022/04/11 10:05:34;;;;;;;5.73;5.00;;;15.30;36.00;;;;;;5091411;28;20499;-84
2022/04/11 10:08:03;;;;;;;4.73;4.33;;;15.60;36.00;;;;;;5082196;28;20998;-85
2022/04/11 10:10:32;;;;;;;5.03;3.67;;;15.70;35.40;;;;;;5089319;28;20447;-86
2022/04/11 10:12:59;;;;;;;3.80;3.50;;;15.90;33.10;;;;;;5072982;28;20458;-85
2022/04/11 10:15:27;;;;;;;4.90;3.73;;;15.80;33.50;;;;;;5091475;28;20469;-86
2022/04/11 10:17:56;;;;;;;5.70;4.33;;;15.70;34.60;;;;;;5089872;27;20455;-85
2022/04/11 10:20:29;;;;;;;7.67;4.17;;;16.10;35.10;;;;;;5089942;28;21025;-87
2022/04/11 10:23:03;;;;;;;7.33;4.00;;;16.40;33.30;;;;;;5088409;28;20447;-86
2022/04/11 10:25:37;;;;;;;6.40;4.30;;;16.60;34.90;;;;;;5094743;28;21164;-86
2022/04/11 10:28:18;;;;;;;5.27;4.77;;;16.80;32.30;;;;;;5092464;28;20455;-85
2022/04/11 10:30:46;;;;;;;6.07;4.67;;;16.80;33.10;;;;;;5056254;28;20481;-85
2022/04/11 10:33:13;;;;;;;4.90;4.50;;;16.90;33.80;;;;;;5082805;28;20454;-86
2022/04/11 10:35:43;;;;;;;5.23;3.90;;;17.10;33.20;;;;;;5097805;28;20691;-85
2022/04/11 10:38:12;;;;;;;5.60;4.00;;;16.90;32.00;;;;;;5090428;28;20447;-85
2022/04/11 10:40:46;;;;;;;3.70;3.33;;;16.90;31.70;;;;;;5090402;28;20474;-86
2022/04/11 10:43:15;;;;;;;4.80;3.40;;;17.20;31.30;;;;;;5090334;28;20978;-85
2022/04/11 10:45:44;;;;;;;4.07;3.67;;;17.20;33.20;;;;;;5089756;28;20472;-85
2022/04/11 10:48:12;;;;;;;11.20;4.90;;;17.20;32.20;;;;;;5092455;28;20948;-85
2022/04/11 10:50:42;;;;;;;4.90;4.20;;;17.50;32.90;;;;;;5091079;28;20439;-88
2022/04/11 10:53:11;;;;;;;5.67;4.33;;;17.80;31.70;;;;;;5093812;28;20544;-86
2022/04/11 10:55:57;;;;;;;6.10;3.80;;;18.00;32.30;;;;;;5091725;28;20483;-86
2022/04/11 10:58:40;;;;;;;4.97;4.00;;;17.70;29.70;;;;;;5087048;28;20472;-85
2022/04/11 11:01:07;;;;;;;5.77;5.27;;;17.40;32.50;;;;;;5081048;28;20463;-86
2022/04/11 11:03:34;;;;;;;5.33;4.20;;;17.70;32.00;;;;;;5089625;28;20470;-87
2022/04/11 11:06:21;;;;;;;6.27;5.13;;;17.70;32.10;;;;;;5071471;28;20477;-87
2022/04/11 11:08:49;;;;;;;4.93;4.13;;;17.70;31.60;;;;;;5088881;28;20465;-83
2022/04/11 11:11:25;;;;;;;6.13;4.30;;;17.60;30.00;;;;;;5086879;28;20444;-86
2022/04/11 11:13:54;;;;;;;4.93;3.90;;;17.40;30.40;;;;;;5090019;28;20440;-85
2022/04/11 11:16:36;;;;;;;4.77;4.37;;;17.70;31.80;;;;;;5090986;28;20540;-85
2022/04/11 11:19:12;;;;;;;6.90;4.27;;;18.10;31.30;;;;;;5107382;27;21051;-86
2022/04/11 11:22:05;;;;;;;4.00;3.60;;;18.40;31.10;;;;;;5089140;28;20513;-87
2022/04/11 11:24:32;;;;;;;4.80;4.30;;;17.80;29.80;;;;;;5074334;28;20447;-85
2022/04/11 11:27:03;;;;;;;4.00;3.40;;;18.00;30.10;;;;;;5088465;28;20558;-88
2022/04/11 11:29:33;;;;;;;3.87;3.53;;;18.30;29.10;;;;;;5097104;28;20443;-85
2022/04/11 11:32:02;;;;;;;6.43;4.40;;;18.50;29.60;;;;;;5086718;28;20920;-86
2022/04/11 11:34:31;;;;;;;7.23;4.67;;;18.80;30.70;;;;;;5088631;28;20453;-86
2022/04/11 11:37:00;;;;;;;5.13;4.70;;;19.00;29.60;;;;;;5088082;28;21026;-86
2022/04/11 11:39:29;;;;;;;7.47;4.60;;;19.00;29.80;;;;;;5066058;28;20456;-85
2022/04/11 11:42:02;;;;;;;5.10;4.47;;;18.80;30.00;;;;;;5088439;28;20974;-86
2022/04/11 11:44:30;;;;;;;3.90;3.50;;;19.00;29.70;;;;;;5091627;28;20972;-87
2022/04/11 11:46:59;;;;;;;5.13;4.00;;;18.70;28.90;;;;;;5090247;28;20517;-88
2022/04/11 11:49:28;;;;;;;4.33;3.00;;;18.50;29.30;;;;;;5105702;27;20458;-88
2022/04/11 11:51:55;;;;;;;3.77;3.47;;;18.60;29.50;;;;;;5087356;28;20454;-87
2022/04/11 11:54:37;;;;;;;4.13;3.73;;;18.70;29.70;;;;;;5091592;28;20460;-86
2022/04/11 11:57:12;;;;;;;3.83;3.30;;;19.00;28.50;;;;;;5079389;28;20472;-88
2022/04/11 11:59:50;;;;;;;4.57;4.17;;;19.10;28.40;;;;;;5073942;28;20519;-88
2022/04/11 12:05:04;;;;;;;8.60;3.60;;;19.00;29.00;;;;;;5086904;28;20454;-86
2022/04/11 12:07:31;;;;;;;3.83;3.13;;;19.40;29.20;;;;;;5097178;28;21064;-87
2022/04/11 12:10:00;;;;;;;3.90;3.50;;;19.60;28.00;;;;;;5087613;28;20455;-87
2022/04/11 12:12:27;;;;;;;5.40;3.70;;;19.20;26.60;;;;;;5088405;28;20512;-86
2022/04/11 12:15:03;;;;;;;3.87;3.20;;;18.70;27.70;;;;;;5091259;28;20436;-86
2022/04/11 12:17:32;;;;;;;3.50;3.20;;;18.80;28.80;;;;;;5090143;28;20453;-87
2022/04/11 12:20:07;;;;;;;5.90;4.00;;;19.20;28.40;;;;;;5090893;28;20535;-87
2022/04/11 12:22:34;;;;;;;3.73;3.43;;;19.30;28.90;;;;;;5090051;28;20458;-86
2022/04/11 12:25:20;;;;;;;4.93;4.20;;;19.40;27.70;;;;;;5088300;28;20923;-89
2022/04/11 12:27:49;;;;;;;4.53;3.50;;;19.60;27.60;;;;;;5073629;28;20444;-86
2022/04/11 12:30:16;;;;;;;4.30;3.40;;;19.80;26.70;;;;;;5058690;28;21037;-88
2022/04/11 12:32:43;;;;;;;4.73;3.63;;;19.80;27.90;;;;;;5085845;28;20784;-85
2022/04/11 12:35:18;;;;;;;4.20;3.83;;;19.60;27.40;;;;;;5087689;28;20467;-87
2022/04/11 12:37:50;;;;;;;6.67;4.10;;;19.80;27.30;;;;;;5087209;28;21046;-88
2022/04/11 12:40:18;;;;;;;4.50;3.27;;;19.50;28.20;;;;;;5086496;28;20447;-85
2022/04/11 12:42:47;;;;;;;4.67;4.00;;;19.60;29.10;;;;;;5073313;28;20479;-89
2022/04/11 12:45:15;;;;;;;5.97;3.60;;;19.80;28.30;;;;;;5087063;28;21454;-90
2022/04/11 12:48:02;;;;;;;4.40;4.00;;;20.00;28.20;;;;;;5092069;28;20555;-86
2022/04/11 12:50:29;;;;;;;4.80;3.73;;;19.70;27.90;;;;;;5088801;28;20447;-86
2022/04/11 12:52:56;;;;;;;5.40;4.07;;;20.10;27.70;;;;;;5088526;28;20782;-87
2022/04/11 12:55:27;;;;;;;3.70;3.07;;;20.40;27.40;;;;;;5091371;28;20459;-86
2022/04/11 12:58:02;;;;;;;4.30;3.90;;;20.10;26.20;;;;;;5086296;28;20460;-87
2022/04/11 13:00:29;;;;;;;4.27;3.87;;;20.10;26.90;;;;;;5088887;28;20612;-89